< < Back
Terminal Aerodrome Forecast


Current Version              Previous Versions:   1  2  3  4  5  6  7  8  9  

Terminal Aerodrome Forecast

208
FTUS44 KBMX 241500 AAA
TAFMGM
TAF AMD
KMGM 241528Z 2415/2512 25008KT P6SM BKN015
      TEMPO 2416/2417 SCT015
     FM241700 27009KT P6SM BKN025
      TEMPO 2418/2422 SCT025
     FM242200 31007KT P6SM SCT150=



Latest METAR

335
SAUS80 KWBC 250000
MTRMGM
METAR KMGM 242353Z 31008KT 10SM CLR 18/09 A2992 RMK AO2 SLP131 T01830089
10256 20172 53030


USA.gov is the U.S. government's official web portal to all federal, state and local government web resources and services.